Photometre #843[NE_1.6_Dp] Camborne_MO AOT

File : 20210608_843.hum

08/06/2021,05:19:54,TEMP=11.5,BA=5.68,STAT.A,ExtBa=12.30
08/06/2021,05:24:19,TEMP=11.8,BA=5.64,STAT.A,ExtBa=12.20
08/06/2021,05:29:26,TEMP=12.0,BA=5.64,STAT.A,ExtBa=12.20
08/06/2021,05:35:27,TEMP=12.2,BA=5.64,STAT.A,ExtBa=12.20
08/06/2021,05:42:38,TEMP=12.4,BA=5.68,STAT.A,ExtBa=12.20
08/06/2021,05:51:22,TEMP=12.6,BA=5.68,STAT.A,ExtBa=12.20
08/06/2021,06:02:12,TEMP=12.7,BA=5.68,STAT.B,ExtBa=12.20
08/06/2021,06:07:19,TEMP=12.8,BA=5.68,STAT.A,ExtBa=12.20
08/06/2021,06:13:01,TEMP=12.8,BA=5.64,STAT.A,ExtBa=12.20
08/06/2021,06:19:22,TEMP=13.1,BA=5.64,STAT.A,ExtBa=12.20
08/06/2021,06:26:30,TEMP=13.7,BA=5.64,STAT.A,ExtBa=12.20
08/06/2021,06:34:36,TEMP=14.0,BA=5.68,STAT.C,ExtBa=12.20
08/06/2021,06:44:05,TEMP=15.1,BA=5.64,STAT.b=0.0
08/06/2021,06:44:52,TEMP=15.2,BA=5.64,STAT.A,ExtBa=12.10
08/06/2021,06:54:38,TEMP=15.0,BA=5.68,STAT.A,ExtBa=12.10
08/06/2021,07:07:17,TEMP=15.2,BA=5.68,STAT.A,ExtBa=12.20
08/06/2021,07:22:25,TEMP=15.5,BA=5.68,STAT.A,ExtBa=12.20
08/06/2021,07:40:58,TEMP=15.8,BA=5.64,STAT.B,ExtBa=12.20
08/06/2021,08:18:46,TEMP=15.7,BA=5.64,STAT.E,ExtBa=12.20
08/06/2021,08:34:23,TEMP=16.9,BA=5.64,STAT.E,ExtBa=12.10
08/06/2021,08:36:22,TEMP=16.9,BA=5.64,STAT.D,ExtBa=12.10
08/06/2021,08:50:36,TEMP=15.8,BA=5.64,STAT.D,ExtBa=12.20
08/06/2021,09:05:36,TEMP=15.7,BA=5.64,STAT.D,ExtBa=12.20
08/06/2021,09:20:38,TEMP=16.1,BA=5.64,STAT.F,ExtBa=12.20
08/06/2021,09:30:03,TEMP=17.0,BA=5.64,STAT.b=0.0
08/06/2021,09:35:57,TEMP=16.8,BA=5.64,STAT.D,ExtBa=12.10
08/06/2021,09:50:36,TEMP=18.0,BA=5.64,STAT.D,ExtBa=12.20
08/06/2021,10:05:36,TEMP=18.6,BA=5.64,STAT.D,ExtBa=12.20
08/06/2021,10:20:38,TEMP=17.3,BA=5.64,STAT.F,ExtBa=12.20
08/06/2021,10:35:37,TEMP=17.0,BA=5.64,STAT.D,ExtBa=12.20
08/06/2021,10:50:37,TEMP=17.3,BA=5.64,STAT.D,ExtBa=12.20
08/06/2021,11:05:37,TEMP=17.3,BA=5.64,STAT.D,ExtBa=12.20
08/06/2021,11:20:38,TEMP=18.4,BA=5.64,STAT.F,ExtBa=12.20
08/06/2021,11:35:37,TEMP=18.8,BA=5.68,STAT.D,ExtBa=12.20
08/06/2021,11:50:37,TEMP=19.1,BA=5.68,STAT.D,ExtBa=12.20
08/06/2021,12:05:37,TEMP=18.5,BA=5.68,STAT.D,ExtBa=12.20
08/06/2021,12:20:39,TEMP=18.4,BA=5.68,STAT.F,ExtBa=12.20
08/06/2021,12:36:23,TEMP=19.7,BA=5.64,STAT.D,ExtBa=12.10
08/06/2021,12:50:37,TEMP=19.3,BA=5.68,STAT.D,ExtBa=12.10
08/06/2021,13:05:37,TEMP=19.7,BA=5.68,STAT.D,ExtBa=12.20
08/06/2021,13:20:38,TEMP=19.6,BA=5.68,STAT.F,ExtBa=12.20
08/06/2021,13:36:51,TEMP=20.5,BA=5.64,STAT.D,ExtBa=12.10
08/06/2021,13:50:37,TEMP=19.5,BA=5.68,STAT.D,ExtBa=12.10
08/06/2021,14:05:37,TEMP=19.1,BA=5.68,STAT.D,ExtBa=12.10
08/06/2021,14:20:38,TEMP=19.2,BA=5.68,STAT.F,ExtBa=12.20
08/06/2021,14:36:45,TEMP=19.7,BA=5.64,STAT.D,ExtBa=12.10
08/06/2021,14:50:36,TEMP=18.5,BA=5.68,STAT.D,ExtBa=12.10
08/06/2021,15:05:36,TEMP=18.6,BA=5.68,STAT.D,ExtBa=12.10
08/06/2021,15:20:38,TEMP=18.6,BA=5.68,STAT.F,ExtBa=12.20
08/06/2021,15:45:08,TEMP=18.9,BA=5.64,STAT.D,ExtBa=12.10
08/06/2021,15:50:36,TEMP=18.3,BA=5.68,STAT.D,ExtBa=12.10
08/06/2021,16:05:36,TEMP=17.9,BA=5.68,STAT.D,ExtBa=12.10
08/06/2021,16:20:37,TEMP=17.5,BA=5.68,STAT.E,ExtBa=12.10
08/06/2021,16:36:56,TEMP=19.0,BA=5.64,STAT.B,ExtBa=12.10
08/06/2021,17:00:16,TEMP=17.4,BA=5.64,STAT.B,ExtBa=12.10
08/06/2021,17:18:49,TEMP=17.3,BA=5.68,STAT.A,ExtBa=12.10
08/06/2021,17:33:57,TEMP=17.2,BA=5.68,STAT.A,ExtBa=12.10
08/06/2021,17:46:36,TEMP=16.6,BA=5.68,STAT.A,ExtBa=12.10
08/06/2021,17:57:21,TEMP=16.8,BA=5.68,STAT.A,ExtBa=12.10
08/06/2021,18:06:38,TEMP=16.9,BA=5.68,STAT.C,ExtBa=12.10
08/06/2021,18:31:31,TEMP=17.4,BA=5.64,STAT.A,ExtBa=12.10
08/06/2021,18:34:45,TEMP=17.0,BA=5.64,STAT.A,ExtBa=12.10
08/06/2021,18:37:03,TEMP=17.2,BA=5.64,STAT.A,ExtBa=12.10
08/06/2021,18:39:17,TEMP=17.2,BA=5.64,STAT.A,ExtBa=12.10
08/06/2021,18:41:35,TEMP=17.0,BA=5.64,STAT.B,ExtBa=12.10
08/06/2021,18:49:52,TEMP=16.1,BA=5.64,STAT.A,ExtBa=12.10
08/06/2021,18:58:36,TEMP=15.8,BA=5.64,STAT.A,ExtBa=12.10
08/06/2021,19:05:47,TEMP=15.8,BA=5.64,STAT.A,ExtBa=12.10
08/06/2021,19:11:48,TEMP=15.7,BA=5.68,STAT.A,ExtBa=12.10
08/06/2021,19:16:55,TEMP=15.6,BA=5.68,STAT.A,ExtBa=12.10
08/06/2021,19:21:20,TEMP=15.7,BA=5.68,STAT.A,ExtBa=12.10